Time;durP1;ratioP1;P1;durP2;ratioP2;P2;SDS_P1;SDS_P2;PMS_P1;PMS_P2;Temp;Humidity;BMP_temperature;BMP_pressure;BME280_temperature;BME280_humidity;BME280_pressure;Samples;Min_cycle;Max_cycle;Signal;HPM_P1;HPM_P2
2022/03/27 00:00:19;;;;;;;5.28;2.92;;;20.60;52.40;;;;;;4880460;29;20045;-59
2022/03/27 00:02:44;;;;;;;5.22;2.80;;;20.60;52.40;;;;;;4881290;29;20395;-58
2022/03/27 00:05:10;;;;;;;4.15;2.42;;;20.60;52.40;;;;;;4881353;29;20081;-59
2022/03/27 00:07:36;;;;;;;4.63;2.58;;;20.50;52.40;;;;;;4880576;29;20048;-59
2022/03/27 00:10:01;;;;;;;5.57;2.60;;;20.50;52.30;;;;;;4881010;29;20037;-59
2022/03/27 00:12:27;;;;;;;5.63;2.40;;;20.50;52.30;;;;;;4881056;29;20104;-59
2022/03/27 00:14:53;;;;;;;5.35;2.60;;;20.50;52.30;;;;;;4880229;29;20068;-59
2022/03/27 00:17:18;;;;;;;4.32;2.50;;;20.50;52.30;;;;;;4880828;29;20053;-59
2022/03/27 00:19:44;;;;;;;3.97;2.35;;;20.50;52.30;;;;;;4879647;29;20045;-58
2022/03/27 00:22:09;;;;;;;4.43;2.17;;;20.50;52.30;;;;;;4880475;29;20099;-58
2022/03/27 00:24:35;;;;;;;3.95;2.30;;;20.50;52.20;;;;;;4880681;29;20052;-58
2022/03/27 00:27:01;;;;;;;3.53;2.03;;;20.50;52.20;;;;;;4880891;29;20041;-59
2022/03/27 00:29:26;;;;;;;5.07;2.00;;;20.50;52.20;;;;;;4879899;29;20076;-58
2022/03/27 00:31:52;;;;;;;4.10;2.10;;;20.50;52.20;;;;;;4881033;29;20052;-58
2022/03/27 00:34:21;;;;;;;4.78;2.17;;;20.40;52.10;;;;;;4880760;29;20056;-58
2022/03/27 00:36:46;;;;;;;3.42;2.10;;;20.40;52.10;;;;;;4880205;29;20120;-59
2022/03/27 00:39:12;;;;;;;4.40;2.20;;;20.40;52.00;;;;;;4880622;29;20131;-58
2022/03/27 00:41:37;;;;;;;3.28;1.92;;;20.40;52.10;;;;;;4880565;29;20495;-59
2022/03/27 00:44:03;;;;;;;5.40;2.40;;;20.40;52.00;;;;;;4879915;29;20606;-58
2022/03/27 00:46:29;;;;;;;3.00;1.60;;;20.40;52.00;;;;;;4880405;29;20057;-58
2022/03/27 00:48:54;;;;;;;3.83;2.40;;;20.40;52.00;;;;;;4880606;29;20041;-58
2022/03/27 00:51:20;;;;;;;5.28;2.03;;;20.40;52.00;;;;;;4879633;29;20493;-58
2022/03/27 00:53:45;;;;;;;3.63;2.13;;;20.40;51.90;;;;;;4880671;29;20080;-59
2022/03/27 00:56:11;;;;;;;2.88;1.80;;;20.40;51.90;;;;;;4880152;29;20055;-59
2022/03/27 00:58:37;;;;;;;4.20;2.17;;;20.40;51.90;;;;;;4879898;29;20132;-58
2022/03/27 01:01:04;;;;;;;4.18;2.25;;;20.30;51.80;;;;;;4880261;29;20071;-58
2022/03/27 01:03:31;;;;;;;4.25;1.98;;;20.30;51.80;;;;;;4880020;29;20079;-59
2022/03/27 01:05:59;;;;;;;2.95;1.67;;;20.30;51.80;;;;;;4879901;29;20084;-59
2022/03/27 01:11:16;;;;;;;2.50;1.70;;;20.30;51.70;;;;;;4878986;29;20085;-59
2022/03/27 01:13:57;;;;;;;4.10;2.00;;;20.30;51.70;;;;;;4879937;29;20061;-59
2022/03/27 01:16:31;;;;;;;3.22;1.60;;;20.30;51.70;;;;;;4879891;29;20174;-59
2022/03/27 01:18:57;;;;;;;3.53;1.73;;;20.30;51.70;;;;;;4879499;29;20049;-59
2022/03/27 01:21:23;;;;;;;4.00;1.60;;;20.30;51.70;;;;;;4878717;29;20045;-59
2022/03/27 01:23:49;;;;;;;4.20;1.77;;;20.30;51.70;;;;;;4880061;29;20549;-59
2022/03/27 01:26:14;;;;;;;2.50;1.50;;;20.30;51.60;;;;;;4878941;29;20049;-59
2022/03/27 01:28:40;;;;;;;2.95;1.42;;;20.30;51.60;;;;;;4879698;29;20159;-59
2022/03/27 01:31:07;;;;;;;3.10;1.38;;;20.20;51.60;;;;;;4879373;29;20053;-59
2022/03/27 01:33:33;;;;;;;3.28;1.52;;;20.20;51.60;;;;;;4878944;29;20049;-59
2022/03/27 01:35:58;;;;;;;3.15;1.30;;;20.20;51.50;;;;;;4879905;29;20548;-59
2022/03/27 01:38:23;;;;;;;3.85;1.48;;;20.20;51.60;;;;;;4879406;29;20105;-59
2022/03/27 01:40:49;;;;;;;3.95;1.70;;;20.20;51.50;;;;;;4878975;29;20096;-59
2022/03/27 01:43:15;;;;;;;2.97;1.80;;;20.20;51.50;;;;;;4879098;29;20051;-59
2022/03/27 01:45:41;;;;;;;3.97;1.80;;;20.20;51.50;;;;;;4879641;29;20055;-58
2022/03/27 01:48:06;;;;;;;3.28;1.55;;;20.20;51.60;;;;;;4879058;29;20057;-59
2022/03/27 01:50:32;;;;;;;2.10;1.20;;;20.20;51.60;;;;;;4879523;29;20067;-59
2022/03/27 01:52:57;;;;;;;3.20;1.58;;;20.20;51.50;;;;;;4878975;29;20052;-59
2022/03/27 01:55:23;;;;;;;3.00;1.75;;;20.20;51.60;;;;;;4878935;29;20057;-59
2022/03/27 01:57:48;;;;;;;3.45;1.65;;;20.20;51.50;;;;;;4879457;29;20053;-59
2022/03/27 02:00:14;;;;;;;3.10;1.70;;;20.20;51.50;;;;;;4878310;29;20085;-59
2022/03/27 02:02:40;;;;;;;4.22;1.63;;;20.20;51.40;;;;;;4878998;29;20041;-59
2022/03/27 02:05:06;;;;;;;3.42;1.73;;;20.20;51.40;;;;;;4878894;29;20060;-59
2022/03/27 02:07:39;;;;;;;1.63;1.02;;;20.20;51.40;;;;;;4877308;29;20394;-59
2022/03/27 02:10:05;;;;;;;3.83;1.42;;;20.20;51.30;;;;;;4879176;29;20049;-59
2022/03/27 02:12:34;;;;;;;3.03;1.35;;;20.20;51.30;;;;;;4878737;29;20820;-59
2022/03/27 02:14:59;;;;;;;2.60;1.38;;;20.20;51.30;;;;;;4878172;29;20057;-59
2022/03/27 02:17:25;;;;;;;3.03;1.40;;;20.20;51.20;;;;;;4878870;29;20102;-59
2022/03/27 02:19:50;;;;;;;3.33;1.45;;;20.20;51.30;;;;;;4879145;29;20049;-59
2022/03/27 02:22:16;;;;;;;2.85;1.30;;;20.20;51.20;;;;;;4878170;29;20045;-59
2022/03/27 02:24:41;;;;;;;3.15;1.25;;;20.20;51.20;;;;;;4878224;29;20048;-59
2022/03/27 02:27:07;;;;;;;5.43;1.73;;;20.20;51.10;;;;;;4878913;29;20076;-59
2022/03/27 02:29:32;;;;;;;2.70;1.40;;;20.20;51.10;;;;;;4877669;29;20135;-59
2022/03/27 02:31:58;;;;;;;3.22;1.40;;;20.20;51.10;;;;;;4878953;29;20060;-59
2022/03/27 02:34:23;;;;;;;3.15;1.52;;;20.20;51.00;;;;;;4878860;29;20041;-59
2022/03/27 02:36:49;;;;;;;4.30;1.58;;;20.20;51.10;;;;;;4876917;29;20069;-59
2022/03/27 02:39:14;;;;;;;4.18;1.30;;;20.20;51.00;;;;;;4878715;29;20033;-59
2022/03/27 02:41:40;;;;;;;2.47;1.20;;;20.20;51.00;;;;;;4878047;29;20369;-59
2022/03/27 02:44:06;;;;;;;3.88;1.42;;;20.20;51.00;;;;;;4878253;29;20060;-59
2022/03/27 02:46:32;;;;;;;3.08;1.40;;;20.20;51.00;;;;;;4878658;29;20080;-59
2022/03/27 02:48:57;;;;;;;4.20;1.35;;;20.20;51.00;;;;;;4878917;29;20061;-59
2022/03/27 02:51:23;;;;;;;2.55;1.30;;;20.30;51.10;;;;;;4877727;29;20101;-59
2022/03/27 02:53:48;;;;;;;2.13;1.20;;;20.20;50.90;;;;;;4877565;29;20205;-59
2022/03/27 02:56:14;;;;;;;1.95;1.20;;;20.20;50.90;;;;;;4877755;29;20474;-59
2022/03/27 02:58:40;;;;;;;3.10;1.27;;;20.20;50.90;;;;;;4878756;29;20464;-59
2022/03/27 03:01:05;;;;;;;3.15;1.00;;;20.20;50.90;;;;;;4878686;29;20067;-59
2022/03/27 03:03:31;;;;;;;2.10;1.08;;;20.20;50.90;;;;;;4877803;29;20497;-59
2022/03/27 03:05:57;;;;;;;2.35;1.20;;;20.30;51.00;;;;;;4878850;29;20060;-59
2022/03/27 03:08:23;;;;;;;3.85;1.55;;;20.30;51.00;;;;;;4877136;29;20041;-59
2022/03/27 03:10:48;;;;;;;2.47;1.00;;;20.20;50.90;;;;;;4876787;29;20070;-59
2022/03/27 03:13:14;;;;;;;2.20;1.10;;;20.30;51.00;;;;;;4878097;29;20103;-59
2022/03/27 03:15:42;;;;;;;2.20;1.10;;;20.30;51.00;;;;;;4878785;29;20118;-59
2022/03/27 03:18:09;;;;;;;3.00;1.40;;;20.30;50.90;;;;;;4878048;29;20049;-59
2022/03/27 03:20:35;;;;;;;2.33;1.27;;;20.30;50.90;;;;;;4878282;29;20084;-59
2022/03/27 03:23:00;;;;;;;1.67;1.10;;;20.30;50.90;;;;;;4878341;29;20077;-59
2022/03/27 03:25:26;;;;;;;3.20;1.40;;;20.30;50.80;;;;;;4877501;29;20063;-59
2022/03/27 03:27:51;;;;;;;1.67;1.05;;;20.30;50.80;;;;;;4878689;29;20049;-60
2022/03/27 03:30:17;;;;;;;3.83;1.20;;;20.30;50.80;;;;;;4878376;29;20049;-59
2022/03/27 03:32:43;;;;;;;2.72;1.40;;;20.30;50.80;;;;;;4877768;29;20166;-59
2022/03/27 03:35:09;;;;;;;2.58;1.40;;;20.30;50.80;;;;;;4878474;29;20168;-60
2022/03/27 03:37:34;;;;;;;2.13;1.20;;;20.30;50.70;;;;;;4877663;29;20080;-59
2022/03/27 03:40:00;;;;;;;2.05;1.00;;;20.30;50.80;;;;;;4877762;29;20052;-59
2022/03/27 03:42:26;;;;;;;3.13;1.23;;;20.30;50.80;;;;;;4878119;29;20049;-59
2022/03/27 03:44:51;;;;;;;2.45;1.25;;;20.30;50.80;;;;;;4878323;29;20052;-60
2022/03/27 03:47:17;;;;;;;4.43;1.50;;;20.30;50.70;;;;;;4877472;29;20370;-59
2022/03/27 03:49:42;;;;;;;3.70;1.20;;;20.30;50.70;;;;;;4878485;29;20405;-59
2022/03/27 03:52:08;;;;;;;2.80;1.33;;;20.30;50.60;;;;;;4878059;29;20488;-60
2022/03/27 03:54:37;;;;;;;3.60;1.40;;;20.30;50.70;;;;;;4880200;29;20049;-59
2022/03/27 03:57:03;;;;;;;2.05;1.13;;;20.40;50.70;;;;;;4881178;29;20443;-59
2022/03/27 03:59:29;;;;;;;3.33;1.10;;;20.30;50.70;;;;;;4880715;29;20053;-60
2022/03/27 04:01:55;;;;;;;2.38;1.00;;;20.30;50.70;;;;;;4880555;29;20478;-59
2022/03/27 04:04:20;;;;;;;2.42;1.23;;;20.30;50.70;;;;;;4880344;29;20052;-59
2022/03/27 04:06:46;;;;;;;2.95;1.45;;;20.30;50.70;;;;;;4880765;29;20129;-59
2022/03/27 04:09:11;;;;;;;2.58;0.95;;;20.30;50.70;;;;;;4881110;29;20071;-59
2022/03/27 04:11:36;;;;;;;2.50;1.23;;;20.30;50.70;;;;;;4881312;29;20097;-59
2022/03/27 04:14:02;;;;;;;3.50;1.88;;;20.30;50.70;;;;;;4880179;29;20057;-59
2022/03/27 04:16:28;;;;;;;2.75;1.08;;;20.30;50.60;;;;;;4881071;29;20052;-59
2022/03/27 04:18:54;;;;;;;2.58;1.23;;;20.30;50.60;;;;;;4881474;29;20044;-59
2022/03/27 04:21:19;;;;;;;2.50;1.10;;;20.30;50.50;;;;;;4880102;29;20041;-59
2022/03/27 04:23:45;;;;;;;2.00;1.25;;;20.30;50.50;;;;;;4880962;29;20093;-60
2022/03/27 04:26:12;;;;;;;3.83;1.48;;;20.30;50.50;;;;;;4880635;29;20053;-59
2022/03/27 04:28:37;;;;;;;2.20;1.05;;;20.30;50.50;;;;;;4880378;29;20052;-59
2022/03/27 04:31:03;;;;;;;3.70;1.10;;;20.30;50.50;;;;;;4880911;29;20140;-59
2022/03/27 04:33:28;;;;;;;3.03;1.30;;;20.30;50.50;;;;;;4880865;29;20218;-59
2022/03/27 04:35:54;;;;;;;2.40;1.30;;;20.40;50.60;;;;;;4880198;29;20045;-59
2022/03/27 04:38:19;;;;;;;3.92;1.65;;;20.30;50.50;;;;;;4880655;29;20394;-59
2022/03/27 04:40:45;;;;;;;2.65;1.20;;;20.30;50.50;;;;;;4880696;29;20136;-59
2022/03/27 04:43:10;;;;;;;2.00;0.88;;;20.30;50.50;;;;;;4880037;29;20052;-60
2022/03/27 04:45:36;;;;;;;2.88;1.13;;;20.30;50.40;;;;;;4880756;29;20113;-59
2022/03/27 04:48:01;;;;;;;4.13;1.30;;;20.30;50.40;;;;;;4880751;29;20048;-59
2022/03/27 04:50:27;;;;;;;2.28;1.10;;;20.30;50.40;;;;;;4879465;29;20044;-59
2022/03/27 04:52:52;;;;;;;2.22;1.13;;;20.40;50.50;;;;;;4880660;29;20045;-59
2022/03/27 04:55:18;;;;;;;1.73;0.93;;;20.40;50.50;;;;;;4880456;29;20049;-59
2022/03/27 04:57:43;;;;;;;2.55;1.08;;;20.30;50.40;;;;;;4879803;29;20045;-59
2022/03/27 05:00:11;;;;;;;3.17;1.08;;;20.40;50.50;;;;;;4880582;29;20048;-59
2022/03/27 05:02:38;;;;;;;2.37;0.90;;;20.40;50.40;;;;;;4880545;29;20053;-59
2022/03/27 05:05:04;;;;;;;1.63;0.90;;;20.40;50.80;;;;;;4879239;29;20059;-59
2022/03/27 05:07:30;;;;;;;1.77;1.10;;;20.40;50.40;;;;;;4880414;29;20120;-59
2022/03/27 05:09:56;;;;;;;2.75;0.90;;;20.40;50.40;;;;;;4879775;29;20053;-59
2022/03/27 05:12:21;;;;;;;1.65;1.08;;;20.40;50.40;;;;;;4879898;29;20049;-59
2022/03/27 05:14:47;;;;;;;2.80;1.30;;;20.40;50.30;;;;;;4879947;29;20550;-59
2022/03/27 05:17:12;;;;;;;2.47;1.00;;;20.40;50.30;;;;;;4879316;29;20049;-59
2022/03/27 05:19:38;;;;;;;3.88;1.08;;;20.40;50.30;;;;;;4880161;29;20088;-59
2022/03/27 05:22:04;;;;;;;2.13;1.10;;;20.40;50.30;;;;;;4879903;29;20144;-59
2022/03/27 05:24:29;;;;;;;3.45;1.00;;;20.40;50.30;;;;;;4879221;29;20470;-60
2022/03/27 05:26:55;;;;;;;2.45;1.20;;;20.40;50.30;;;;;;4879785;29;20056;-59
2022/03/27 05:29:21;;;;;;;2.78;1.15;;;20.40;50.20;;;;;;4879404;29;20052;-59
2022/03/27 05:31:46;;;;;;;2.15;1.00;;;20.40;50.20;;;;;;4879231;29;20625;-59
2022/03/27 05:34:12;;;;;;;2.35;1.20;;;20.40;50.20;;;;;;4879031;29;20048;-59
2022/03/27 05:36:37;;;;;;;2.15;1.10;;;20.40;50.60;;;;;;4878691;29;20060;-59
2022/03/27 05:39:03;;;;;;;2.65;1.10;;;20.40;50.20;;;;;;4879223;29;20047;-59
2022/03/27 05:41:29;;;;;;;3.22;1.20;;;20.50;50.30;;;;;;4878260;29;20078;-59
2022/03/27 05:43:54;;;;;;;2.05;1.20;;;20.50;50.30;;;;;;4879661;29;20064;-59
2022/03/27 05:46:20;;;;;;;2.05;1.00;;;20.50;50.30;;;;;;4878513;29;20049;-59
2022/03/27 05:48:46;;;;;;;3.42;1.30;;;20.50;50.30;;;;;;4888710;29;20489;-59
2022/03/27 05:51:12;;;;;;;4.38;1.58;;;20.50;50.40;;;;;;4895207;29;20079;-59
2022/03/27 05:53:37;;;;;;;3.70;1.88;;;20.50;50.30;;;;;;4896201;29;20535;-59
2022/03/27 05:56:03;;;;;;;2.40;1.20;;;20.50;50.30;;;;;;4897823;29;20501;-59
2022/03/27 05:58:29;;;;;;;3.88;1.35;;;20.50;50.30;;;;;;4897510;29;20052;-59
2022/03/27 06:00:54;;;;;;;2.92;1.33;;;20.50;50.30;;;;;;4897244;29;20037;-59
2022/03/27 06:03:20;;;;;;;4.15;1.80;;;20.50;50.40;;;;;;4897951;29;20058;-59
2022/03/27 06:05:45;;;;;;;4.32;1.60;;;20.60;50.60;;;;;;4897934;29;20090;-59
2022/03/27 06:08:11;;;;;;;3.95;1.10;;;20.60;50.80;;;;;;4896867;29;20100;-59
2022/03/27 06:10:38;;;;;;;5.20;1.75;;;20.60;50.90;;;;;;4897841;29;20154;-59
2022/03/27 06:13:04;;;;;;;4.97;1.98;;;20.60;51.00;;;;;;4896887;29;20486;-59
2022/03/27 06:15:30;;;;;;;3.20;1.30;;;20.60;51.10;;;;;;4897487;29;20053;-59
2022/03/27 06:17:56;;;;;;;4.03;1.85;;;20.60;51.10;;;;;;4896983;29;20056;-59
2022/03/27 06:20:26;;;;;;;5.75;1.80;;;20.60;51.20;;;;;;4896570;29;20080;-60
2022/03/27 06:22:52;;;;;;;6.10;1.80;;;20.60;51.30;;;;;;4893954;29;20101;-59
2022/03/27 06:25:19;;;;;;;6.22;1.95;;;20.60;51.20;;;;;;4878461;29;20114;-59
2022/03/27 06:27:45;;;;;;;3.97;1.80;;;20.70;51.30;;;;;;4878260;29;20049;-58
2022/03/27 06:30:13;;;;;;;7.60;1.90;;;20.70;51.30;;;;;;4878390;29;20057;-59
2022/03/27 06:32:38;;;;;;;6.00;1.70;;;20.70;51.40;;;;;;4878483;29;20096;-58
2022/03/27 06:35:07;;;;;;;6.97;2.00;;;20.70;51.50;;;;;;4877278;29;20482;-58
2022/03/27 06:37:33;;;;;;;6.45;2.10;;;20.70;51.50;;;;;;4878452;29;20045;-59
2022/03/27 06:39:59;;;;;;;5.25;1.80;;;20.70;51.40;;;;;;4878790;29;20052;-59
2022/03/27 06:42:28;;;;;;;4.40;1.75;;;20.70;51.30;;;;;;4877443;29;20041;-59
2022/03/27 06:44:54;;;;;;;5.43;1.80;;;20.70;51.30;;;;;;4881660;29;20098;-59
2022/03/27 06:47:20;;;;;;;8.43;1.83;;;20.80;51.20;;;;;;4896944;29;20048;-59
2022/03/27 06:49:46;;;;;;;8.68;2.00;;;20.80;51.10;;;;;;4895890;29;20044;-59
2022/03/27 06:52:12;;;;;;;7.10;1.63;;;20.80;51.10;;;;;;4895987;29;20518;-59
2022/03/27 06:54:37;;;;;;;7.80;2.05;;;20.80;51.10;;;;;;4897491;29;20172;-59
2022/03/27 06:57:03;;;;;;;5.72;1.95;;;20.80;51.10;;;;;;4896527;29;20489;-59
2022/03/27 07:03:01;;;;;;;7.32;1.88;;;20.80;51.10;;;;;;4896799;29;20056;-59
2022/03/27 07:04:59;;;;;;;8.63;1.92;;;20.80;51.70;;;;;;4897232;29;20048;-59
2022/03/27 07:07:24;;;;;;;5.00;1.70;;;20.80;50.90;;;;;;4897138;29;20473;-59
2022/03/27 07:09:50;;;;;;;7.43;2.00;;;20.80;50.90;;;;;;4896454;29;20135;-59
2022/03/27 07:12:15;;;;;;;4.20;1.42;;;20.90;50.90;;;;;;4896501;29;20485;-59
2022/03/27 07:14:41;;;;;;;10.55;2.13;;;20.90;50.90;;;;;;4897080;29;20053;-59
2022/03/27 07:17:07;;;;;;;6.60;1.90;;;20.90;50.90;;;;;;4895919;29;20505;-59
2022/03/27 07:19:34;;;;;;;5.90;1.60;;;20.90;50.80;;;;;;4896702;29;20048;-58
2022/03/27 07:22:00;;;;;;;6.70;2.00;;;20.90;50.80;;;;;;4896444;29;20055;-59
2022/03/27 07:24:25;;;;;;;6.18;1.90;;;20.90;50.80;;;;;;4896117;29;20045;-59
2022/03/27 07:26:51;;;;;;;5.38;1.40;;;20.90;50.80;;;;;;4897048;29;20147;-59
2022/03/27 07:29:16;;;;;;;4.53;1.73;;;20.90;50.80;;;;;;4899589;29;20489;-59
2022/03/27 07:31:42;;;;;;;7.95;1.95;;;20.90;50.70;;;;;;4899925;29;20533;-59
2022/03/27 07:34:10;;;;;;;7.70;1.70;;;20.90;51.50;;;;;;4887783;29;20511;-59
2022/03/27 07:36:36;;;;;;;5.10;1.67;;;20.90;50.70;;;;;;4881782;29;20049;-59
2022/03/27 07:39:01;;;;;;;6.70;1.90;;;20.90;50.70;;;;;;4880975;29;20132;-59
2022/03/27 07:41:27;;;;;;;10.02;2.25;;;21.00;50.80;;;;;;4880256;29;20084;-59
2022/03/27 07:43:52;;;;;;;7.10;2.10;;;21.00;50.80;;;;;;4881945;29;20497;-60
2022/03/27 07:46:18;;;;;;;7.75;1.80;;;21.00;50.70;;;;;;4880841;29;20049;-59
2022/03/27 07:48:43;;;;;;;5.57;1.60;;;21.00;50.70;;;;;;4881374;29;20045;-59
2022/03/27 07:51:09;;;;;;;6.13;2.00;;;21.00;50.70;;;;;;4881658;29;20045;-58
2022/03/27 07:53:35;;;;;;;6.40;1.98;;;21.00;50.70;;;;;;4880805;29;20044;-58
2022/03/27 07:56:00;;;;;;;8.50;2.40;;;21.00;50.70;;;;;;4885971;29;20445;-60
2022/03/27 07:58:26;;;;;;;8.32;2.03;;;21.00;50.90;;;;;;4881027;29;20037;-59
2022/03/27 08:00:52;;;;;;;9.02;2.05;;;21.10;51.00;;;;;;4880269;29;20444;-59
2022/03/27 08:03:17;;;;;;;6.75;1.52;;;21.10;51.00;;;;;;4880715;29;20434;-59
2022/03/27 08:05:43;;;;;;;7.05;1.90;;;21.10;51.10;;;;;;4880567;29;20045;-59
2022/03/27 08:08:08;;;;;;;7.05;2.03;;;21.10;51.90;;;;;;4881172;29;20056;-59
2022/03/27 08:10:34;;;;;;;9.90;2.80;;;21.10;51.10;;;;;;4880837;29;20045;-58
2022/03/27 08:12:59;;;;;;;8.68;2.05;;;21.10;51.10;;;;;;4880096;29;20116;-59
2022/03/27 08:15:25;;;;;;;5.15;1.75;;;21.10;51.20;;;;;;4880896;29;20140;-59
2022/03/27 08:17:53;;;;;;;7.68;1.83;;;21.20;51.30;;;;;;4881171;29;20127;-60
2022/03/27 08:20:19;;;;;;;5.90;2.55;;;21.20;51.20;;;;;;4880088;29;20049;-59
2022/03/27 08:22:45;;;;;;;5.93;2.15;;;21.20;51.30;;;;;;4881474;29;20063;-59
2022/03/27 08:26:55;;;;;;;9.73;2.00;;;21.20;51.30;;;;;;4880881;29;20049;-59
2022/03/27 08:27:57;;;;;;;4.90;1.65;;;21.20;51.30;;;;;;4879914;29;20056;-58
2022/03/27 08:30:22;;;;;;;6.35;1.95;;;21.20;51.90;;;;;;4880530;29;20152;-59
2022/03/27 08:32:48;;;;;;;6.05;1.80;;;21.20;51.90;;;;;;4881029;29;20090;-59
2022/03/27 08:35:13;;;;;;;7.78;2.13;;;21.30;51.30;;;;;;4880018;29;20045;-59
2022/03/27 08:37:40;;;;;;;7.68;2.10;;;21.30;51.20;;;;;;4880506;29;20386;-58
2022/03/27 08:40:06;;;;;;;8.60;2.10;;;21.30;51.10;;;;;;4880004;29;20173;-58
2022/03/27 08:42:31;;;;;;;5.18;1.90;;;21.30;51.10;;;;;;4879361;29;20139;-58
2022/03/27 08:44:57;;;;;;;9.75;2.08;;;21.30;51.10;;;;;;4879460;29;20051;-58
2022/03/27 08:47:25;;;;;;;9.27;2.40;;;21.30;51.10;;;;;;4880660;29;20049;-59
2022/03/27 08:49:56;;;;;;;8.98;2.20;;;21.30;51.20;;;;;;4879634;29;20129;-59
2022/03/27 08:52:31;;;;;;;8.63;2.03;;;21.30;51.10;;;;;;4879548;29;20045;-59
2022/03/27 08:55:05;;;;;;;7.97;1.98;;;21.30;51.10;;;;;;4876948;29;20048;-59
2022/03/27 08:57:40;;;;;;;11.68;2.42;;;21.30;51.10;;;;;;4877359;29;20854;-59
2022/03/27 09:00:06;;;;;;;10.13;2.25;;;21.40;51.20;;;;;;4878708;29;20485;-59
2022/03/27 09:02:31;;;;;;;9.55;2.05;;;21.40;51.20;;;;;;4879299;29;20060;-59
2022/03/27 09:04:57;;;;;;;8.63;1.70;;;21.40;51.30;;;;;;4879042;29;20061;-60
2022/03/27 09:07:24;;;;;;;7.47;2.65;;;21.40;51.30;;;;;;4879682;29;20505;-59
2022/03/27 09:09:53;;;;;;;11.35;2.40;;;21.40;51.30;;;;;;4876888;29;20055;-59
2022/03/27 09:12:19;;;;;;;9.93;2.33;;;21.40;51.30;;;;;;4879878;29;20519;-60
2022/03/27 09:14:45;;;;;;;10.25;2.17;;;21.40;51.30;;;;;;4888349;29;20109;-58
2022/03/27 09:17:10;;;;;;;8.73;2.00;;;21.50;51.30;;;;;;4878051;29;20595;-59
2022/03/27 09:19:43;;;;;;;10.30;2.25;;;21.50;51.20;;;;;;4864555;29;20076;-59
2022/03/27 09:22:33;;;;;;;8.48;2.20;;;21.50;51.30;;;;;;4872833;29;20049;-58
2022/03/27 09:25:02;;;;;;;7.82;2.40;;;21.50;51.40;;;;;;4877967;29;20482;-59
2022/03/27 09:27:32;;;;;;;9.23;2.20;;;21.50;51.40;;;;;;4879019;29;20100;-59
2022/03/27 09:30:07;;;;;;;9.30;2.38;;;21.50;51.50;;;;;;4877267;29;20073;-59
2022/03/27 09:32:38;;;;;;;8.48;2.30;;;21.50;51.50;;;;;;4879085;29;20048;-58
2022/03/27 09:35:17;;;;;;;11.52;1.88;;;21.50;51.50;;;;;;4876645;29;20089;-58
2022/03/27 09:37:46;;;;;;;8.35;2.45;;;21.60;51.40;;;;;;4876282;29;20195;-59
2022/03/27 09:40:12;;;;;;;9.93;2.40;;;21.60;51.40;;;;;;4879093;29;20045;-60
2022/03/27 09:42:40;;;;;;;11.07;2.10;;;21.60;51.40;;;;;;4879252;29;20120;-58
2022/03/27 09:45:12;;;;;;;8.57;2.90;;;21.60;51.40;;;;;;4879284;29;20489;-59
2022/03/27 09:47:38;;;;;;;9.30;2.55;;;21.60;51.40;;;;;;4879350;29;20045;-59
2022/03/27 09:50:04;;;;;;;9.45;2.60;;;21.60;51.50;;;;;;4878607;29;20053;-59
2022/03/27 09:52:30;;;;;;;11.00;2.55;;;21.60;51.70;;;;;;4876592;29;20474;-59
2022/03/27 09:54:57;;;;;;;10.07;2.58;;;21.60;51.70;;;;;;4879249;29;20195;-59
2022/03/27 09:57:29;;;;;;;8.82;2.60;;;21.60;51.70;;;;;;4879232;29;20143;-58
2022/03/27 09:59:56;;;;;;;10.27;3.10;;;21.60;51.70;;;;;;4878834;29;20056;-59
2022/03/27 10:02:26;;;;;;;11.93;3.30;;;21.70;51.90;;;;;;4878455;29;20511;-60
2022/03/27 10:04:56;;;;;;;11.27;3.83;;;21.70;52.00;;;;;;4878399;29;20096;-57
2022/03/27 10:07:23;;;;;;;10.00;2.70;;;21.70;52.10;;;;;;4860417;29;20137;-58
2022/03/27 10:09:49;;;;;;;12.80;3.03;;;21.70;52.00;;;;;;4887382;29;20131;-57
2022/03/27 10:12:15;;;;;;;11.38;3.53;;;21.70;52.00;;;;;;4887562;29;20096;-58
2022/03/27 10:14:41;;;;;;;11.27;3.63;;;21.70;52.00;;;;;;4877524;29;20048;-57
2022/03/27 10:17:07;;;;;;;11.77;3.20;;;21.70;51.90;;;;;;4861837;29;20041;-58
2022/03/27 10:19:44;;;;;;;14.18;3.65;;;21.70;51.90;;;;;;4871208;29;20056;-58
2022/03/27 10:22:10;;;;;;;8.63;2.58;;;21.70;51.80;;;;;;4843035;29;20405;-58
2022/03/27 10:24:35;;;;;;;12.57;2.80;;;21.70;51.80;;;;;;4863751;29;20049;-58
2022/03/27 10:27:02;;;;;;;11.27;3.50;;;21.70;51.80;;;;;;4875991;29;20133;-58
2022/03/27 10:29:28;;;;;;;11.45;3.00;;;21.70;51.80;;;;;;4877845;29;20127;-58
2022/03/27 10:31:54;;;;;;;12.80;4.20;;;21.70;51.70;;;;;;4877065;29;20128;-57
2022/03/27 10:34:20;;;;;;;14.30;3.70;;;21.70;51.70;;;;;;4875869;29;20128;-57
2022/03/27 10:37:03;;;;;;;11.55;3.33;;;21.80;51.70;;;;;;4877233;29;20079;-58
2022/03/27 10:39:35;;;;;;;11.77;2.90;;;21.70;51.60;;;;;;4863094;29;20045;-58
2022/03/27 10:42:19;;;;;;;10.75;3.28;;;21.80;51.70;;;;;;4862055;29;20041;-57
2022/03/27 10:45:08;;;;;;;12.15;3.10;;;21.80;51.80;;;;;;4878670;29;20045;-57
2022/03/27 10:47:33;;;;;;;15.07;3.30;;;21.80;51.80;;;;;;4876624;29;20049;-58
2022/03/27 10:50:02;;;;;;;11.93;3.28;;;21.80;51.70;;;;;;4878739;29;20044;-58
2022/03/27 10:52:28;;;;;;;8.75;3.08;;;21.80;51.70;;;;;;4878509;29;20494;-57
2022/03/27 10:54:58;;;;;;;12.52;3.63;;;21.80;51.70;;;;;;4878044;29;20044;-57
2022/03/27 10:57:35;;;;;;;11.75;3.42;;;21.80;51.60;;;;;;4877887;29;20556;-57
2022/03/27 11:00:01;;;;;;;12.07;3.00;;;21.80;51.60;;;;;;4878603;29;20041;-57
2022/03/27 11:02:45;;;;;;;10.55;2.70;;;21.80;51.60;;;;;;4876444;29;20051;-57
2022/03/27 11:05:36;;;;;;;11.82;3.70;;;21.80;51.50;;;;;;4881875;29;20059;-58
2022/03/27 11:08:17;;;;;;;13.35;3.10;;;21.80;51.50;;;;;;4881203;29;20053;-58
2022/03/27 11:10:55;;;;;;;8.18;2.55;;;21.80;51.50;;;;;;4881567;29;20048;-58
2022/03/27 11:13:26;;;;;;;8.32;2.45;;;21.80;51.40;;;;;;4881928;29;20088;-57
2022/03/27 11:16:10;;;;;;;8.68;3.00;;;21.80;51.40;;;;;;4881052;29;20480;-57
2022/03/27 11:18:39;;;;;;;10.48;3.10;;;21.80;51.40;;;;;;4882100;29;20055;-57
2022/03/27 11:21:06;;;;;;;11.27;2.83;;;21.80;51.40;;;;;;4882231;29;20056;-57
2022/03/27 11:23:39;;;;;;;10.50;2.72;;;21.80;51.50;;;;;;4880984;29;20075;-57
2022/03/27 11:26:27;;;;;;;8.85;2.70;;;21.80;51.40;;;;;;4881888;29;20049;-57
2022/03/27 11:28:54;;;;;;;11.57;2.90;;;21.80;51.30;;;;;;4881624;29;20081;-58
2022/03/27 11:31:30;;;;;;;9.73;2.85;;;21.80;51.30;;;;;;4881018;29;20513;-57
2022/03/27 11:34:04;;;;;;;10.90;2.85;;;21.80;51.10;;;;;;4882113;29;20048;-57
2022/03/27 11:36:30;;;;;;;9.82;2.72;;;21.90;51.10;;;;;;4881553;29;20398;-58
2022/03/27 11:39:08;;;;;;;11.23;2.60;;;21.80;51.00;;;;;;4880913;29;20497;-58
2022/03/27 11:41:44;;;;;;;;;;;21.80;50.90;;;;;;4881611;29;20535;-58
2022/03/27 11:47:20;;;;;;;12.48;2.50;;;21.80;50.80;;;;;;4880442;29;20486;-58
2022/03/27 11:49:47;;;;;;;8.52;2.88;;;21.80;50.80;;;;;;4881070;29;20051;-58
2022/03/27 11:52:15;;;;;;;11.50;2.70;;;21.80;50.80;;;;;;4879615;29;20041;-58
2022/03/27 11:54:40;;;;;;;8.65;2.20;;;21.90;50.80;;;;;;4880599;29;20041;-57
2022/03/27 11:57:06;;;;;;;10.50;2.20;;;21.80;50.70;;;;;;4880679;29;20037;-57
2022/03/27 11:59:43;;;;;;;11.23;3.45;;;21.90;50.80;;;;;;4879897;29;20036;-58
2022/03/27 12:02:09;;;;;;;8.77;2.67;;;21.90;50.60;;;;;;4879631;29;20088;-57
2022/03/27 12:04:34;;;;;;;11.48;2.90;;;21.90;50.60;;;;;;4863780;29;20120;-57
2022/03/27 12:07:00;;;;;;;9.98;2.97;;;21.90;50.50;;;;;;4863122;29;20048;-57
2022/03/27 12:09:32;;;;;;;10.93;2.70;;;21.90;50.40;;;;;;4880277;29;20040;-58
2022/03/27 12:12:11;;;;;;;10.38;2.60;;;21.90;50.30;;;;;;4880338;29;20045;-57
2022/03/27 12:15:09;;;;;;;11.30;2.35;;;21.90;50.40;;;;;;4880967;29;20067;-58
2022/03/27 12:17:45;;;;;;;12.85;2.75;;;21.90;50.40;;;;;;4859444;29;20057;-58
2022/03/27 12:20:11;;;;;;;11.82;2.85;;;21.90;50.30;;;;;;4880199;29;20060;-58
2022/03/27 12:22:44;;;;;;;9.50;2.72;;;21.90;50.30;;;;;;4881104;29;20097;-58
2022/03/27 12:25:15;;;;;;;9.98;2.67;;;21.90;50.30;;;;;;4880953;29;20045;-58
2022/03/27 12:30:35;;;;;;;9.82;2.50;;;21.90;50.20;;;;;;4880606;29;20045;-58
2022/03/27 12:33:01;;;;;;;10.82;3.03;;;21.90;50.20;;;;;;4880261;29;20049;-58
2022/03/27 12:35:28;;;;;;;9.48;2.83;;;21.90;50.20;;;;;;4879461;29;20092;-58
2022/03/27 12:37:54;;;;;;;9.13;2.90;;;22.00;50.30;;;;;;4869341;29;20045;-57
2022/03/27 12:40:20;;;;;;;9.98;2.50;;;22.00;50.20;;;;;;4860909;29;20038;-57
2022/03/27 12:42:47;;;;;;;7.43;2.10;;;22.00;50.20;;;;;;4861775;29;20060;-57
2022/03/27 12:45:19;;;;;;;9.43;2.65;;;22.00;50.20;;;;;;4861380;29;20124;-58
2022/03/27 12:47:46;;;;;;;12.05;3.28;;;22.00;50.20;;;;;;4860601;29;20455;-59
2022/03/27 12:50:14;;;;;;;13.07;2.72;;;22.00;50.20;;;;;;4861522;29;20046;-58
2022/03/27 12:52:52;;;;;;;10.65;2.58;;;22.00;50.30;;;;;;4861779;29;20072;-58
2022/03/27 12:55:19;;;;;;;9.30;2.15;;;22.00;50.10;;;;;;4869364;29;20041;-58
2022/03/27 12:57:56;;;;;;;7.72;2.05;;;22.00;50.10;;;;;;4879784;29;20045;-58